Time;durP1;ratioP1;P1;durP2;ratioP2;P2;SDS_P1;SDS_P2;PMS_P1;PMS_P2;Temp;Humidity;BMP_temperature;BMP_pressure;BME280_temperature;BME280_humidity;BME280_pressure;Samples;Min_cycle;Max_cycle;Signal;HPM_P1;HPM_P2
2021/09/15 00:00:22;;;;;;;12.98;11.75;;;;;;;;;;2070694;28;20176;-54
2021/09/15 00:01:22;;;;;;;12.13;10.98;;;;;;;;;;2084238;28;20726;-51
2021/09/15 00:02:23;;;;;;;11.77;10.77;;;;;;;;;;2075540;28;20176;-53
2021/09/15 00:03:23;;;;;;;13.25;12.05;;;;;;;;;;2075445;28;20716;-53
2021/09/15 00:04:23;;;;;;;11.63;10.45;;;;;;;;;;2074557;28;20180;-55
2021/09/15 00:05:23;;;;;;;12.35;11.25;;;;;;;;;;2071675;28;20756;-53
2021/09/15 00:06:23;;;;;;;12.15;11.18;;;;;;;;;;2073917;28;20263;-53
2021/09/15 00:07:24;;;;;;;11.60;10.55;;;;;;;;;;2082310;28;20224;-52
2021/09/15 00:08:24;;;;;;;11.88;10.77;;;;;;;;;;2081478;28;20175;-54
2021/09/15 00:09:24;;;;;;;11.82;10.82;;;;;;;;;;2077649;28;20660;-53
2021/09/15 00:10:24;;;;;;;11.60;10.70;;;;;;;;;;2081612;28;20184;-53
2021/09/15 00:11:26;;;;;;;12.05;11.00;;;;;;;;;;2078919;28;20175;-51
2021/09/15 00:12:26;;;;;;;11.77;10.82;;;;;;;;;;2071325;28;20293;-52
2021/09/15 00:13:27;;;;;;;12.23;11.23;;;;;;;;;;2072725;28;20184;-56
2021/09/15 00:14:27;;;;;;;12.25;11.05;;;;;;;;;;2078020;28;20243;-53
2021/09/15 00:15:27;;;;;;;12.68;11.45;;;;;;;;;;2087915;28;20692;-52
2021/09/15 00:16:27;;;;;;;11.82;10.73;;;;;;;;;;2076774;28;20190;-53
2021/09/15 00:17:28;;;;;;;11.88;10.88;;;;;;;;;;2079086;28;20683;-56
2021/09/15 00:18:28;;;;;;;11.82;10.82;;;;;;;;;;2071329;28;20204;-54
2021/09/15 00:19:28;;;;;;;12.38;11.18;;;;;;;;;;2083125;28;20640;-51
2021/09/15 00:20:28;;;;;;;11.93;10.93;;;;;;;;;;2080369;28;20548;-53
2021/09/15 00:21:29;;;;;;;11.50;10.50;;;;;;;;;;2088569;28;20187;-52
2021/09/15 00:22:29;;;;;;;11.07;10.18;;;;;;;;;;2079202;28;20172;-52
2021/09/15 00:23:29;;;;;;;11.93;10.90;;;;;;;;;;2080612;28;20231;-54
2021/09/15 00:24:30;;;;;;;11.48;10.43;;;;;;;;;;2089311;28;20222;-50
2021/09/15 00:25:30;;;;;;;11.70;10.65;;;;;;;;;;2076252;28;20263;-50
2021/09/15 00:26:30;;;;;;;12.15;10.95;;;;;;;;;;2063907;28;20252;-53
2021/09/15 00:27:31;;;;;;;11.30;10.32;;;;;;;;;;2066380;28;20217;-55
2021/09/15 00:28:31;;;;;;;12.38;11.18;;;;;;;;;;2078219;28;20222;-53
2021/09/15 00:29:31;;;;;;;11.90;10.75;;;;;;;;;;2082525;28;20202;-51
2021/09/15 00:30:32;;;;;;;10.85;10.05;;;;;;;;;;2089624;28;20736;-51
2021/09/15 00:31:32;;;;;;;10.98;10.18;;;;;;;;;;2072404;28;20313;-50
2021/09/15 00:32:32;;;;;;;11.35;10.25;;;;;;;;;;2057263;28;20221;-52
2021/09/15 00:33:33;;;;;;;11.68;10.50;;;;;;;;;;2064401;28;20613;-54
2021/09/15 00:34:33;;;;;;;10.98;10.00;;;;;;;;;;2075638;28;20169;-55
2021/09/15 00:35:33;;;;;;;10.85;9.95;;;;;;;;;;2072652;28;20272;-52
2021/09/15 00:36:33;;;;;;;12.57;10.65;;;;;;;;;;2078819;28;20836;-54
2021/09/15 00:37:34;;;;;;;11.93;11.02;;;;;;;;;;2064864;28;20209;-51
2021/09/15 00:38:34;;;;;;;10.85;9.95;;;;;;;;;;2078960;28;20263;-56
2021/09/15 00:39:34;;;;;;;11.40;10.30;;;;;;;;;;2069560;28;20189;-53
2021/09/15 00:40:35;;;;;;;11.25;9.95;;;;;;;;;;2079280;28;20180;-55
2021/09/15 00:41:35;;;;;;;11.18;10.15;;;;;;;;;;2066884;28;20655;-53
2021/09/15 00:42:36;;;;;;;12.35;11.07;;;;;;;;;;2073770;28;20173;-54
2021/09/15 00:43:56;;;;;;;12.75;11.55;;;;;;;;;;2064831;28;20177;-53
2021/09/15 00:44:57;;;;;;;11.20;10.13;;;;;;;;;;2070224;28;20180;-53
2021/09/15 00:45:58;;;;;;;10.90;10.00;;;;;;;;;;2082880;28;20187;-53
2021/09/15 00:46:59;;;;;;;11.63;10.48;;;;;;;;;;2081660;28;20183;-54
2021/09/15 00:47:59;;;;;;;10.88;9.98;;;;;;;;;;2066924;28;20606;-52
2021/09/15 00:48:59;;;;;;;11.35;10.35;;;;;;;;;;2070227;28;20679;-56
2021/09/15 00:50:00;;;;;;;11.07;10.13;;;;;;;;;;2075152;28;20173;-53
2021/09/15 00:51:00;;;;;;;11.10;10.10;;;;;;;;;;2080904;28;20168;-54
2021/09/15 00:52:01;;;;;;;11.57;10.57;;;;;;;;;;2085194;28;20178;-51
2021/09/15 00:53:01;;;;;;;11.77;10.68;;;;;;;;;;2086016;28;20168;-53
2021/09/15 00:54:04;;;;;;;11.45;10.45;;;;;;;;;;2087185;28;20176;-54
2021/09/15 00:55:04;;;;;;;11.68;10.57;;;;;;;;;;2077404;28;20173;-55
2021/09/15 00:56:05;;;;;;;11.48;10.32;;;;;;;;;;2072094;28;20196;-52
2021/09/15 00:57:05;;;;;;;10.43;9.57;;;;;;;;;;2072926;28;20237;-52
2021/09/15 00:58:06;;;;;;;11.65;10.55;;;;;;;;;;2073134;28;20252;-51
2021/09/15 00:59:06;;;;;;;10.82;9.93;;;;;;;;;;2082044;28;20241;-56
2021/09/15 01:00:08;;;;;;;11.10;10.20;;;;;;;;;;2085716;28;20168;-55
2021/09/15 01:01:08;;;;;;;11.48;10.57;;;;;;;;;;2074571;28;20172;-53
2021/09/15 01:02:10;;;;;;;11.77;10.80;;;;;;;;;;2058391;28;20188;-51
2021/09/15 01:03:11;;;;;;;11.20;10.13;;;;;;;;;;2063282;28;20668;-52
2021/09/15 01:04:12;;;;;;;12.00;10.93;;;;;;;;;;2081432;28;20179;-52
2021/09/15 01:05:20;;;;;;;11.75;10.85;;;;;;;;;;2079003;28;20762;-57
2021/09/15 01:06:21;;;;;;;12.30;11.13;;;;;;;;;;2070454;28;20181;-52
2021/09/15 01:07:24;;;;;;;12.20;11.05;;;;;;;;;;2071909;28;20201;-53
2021/09/15 01:08:25;;;;;;;12.05;10.75;;;;;;;;;;2071028;28;20179;-52
2021/09/15 01:09:25;;;;;;;11.30;10.30;;;;;;;;;;2068134;28;20196;-53
2021/09/15 01:10:28;;;;;;;11.27;10.40;;;;;;;;;;2065595;28;20574;-54
2021/09/15 01:11:46;;;;;;;11.57;10.57;;;;;;;;;;2072909;28;20533;-54
2021/09/15 01:13:22;;;;;;;12.02;10.93;;;;;;;;;;2061793;28;20217;-57
2021/09/15 01:14:45;;;;;;;12.43;11.25;;;;;;;;;;2060529;28;20185;-52
2021/09/15 01:16:11;;;;;;;11.40;10.43;;;;;;;;;;2076142;28;20264;-56
2021/09/15 01:17:29;;;;;;;12.75;10.55;;;;;;;;;;2081347;28;20228;-51
2021/09/15 01:18:48;;;;;;;11.35;10.45;;;;;;;;;;2071992;28;20641;-56
2021/09/15 01:20:07;;;;;;;11.95;10.95;;;;;;;;;;2079015;28;20177;-56
2021/09/15 01:21:26;;;;;;;11.35;10.40;;;;;;;;;;2093148;28;20179;-59
2021/09/15 01:22:58;;;;;;;11.85;10.77;;;;;;;;;;2076746;28;20531;-54
2021/09/15 01:24:22;;;;;;;11.45;10.43;;;;;;;;;;2073947;28;20216;-58
2021/09/15 01:25:41;;;;;;;12.57;11.35;;;;;;;;;;2072472;28;20243;-51
2021/09/15 01:27:13;;;;;;;11.77;10.68;;;;;;;;;;2072947;28;20192;-51
2021/09/15 01:28:42;;;;;;;12.20;11.10;;;;;;;;;;2065045;28;20184;-54
2021/09/15 01:29:46;;;;;;;12.38;11.27;;;;;;;;;;2078606;28;20235;-51
2021/09/15 01:30:59;;;;;;;13.10;11.90;;;;;;;;;;2070455;28;20165;-58
2021/09/15 01:32:02;;;;;;;11.73;10.73;;;;;;;;;;2065993;28;20233;-56
2021/09/15 01:33:05;;;;;;;11.48;10.48;;;;;;;;;;2071491;28;20178;-56
2021/09/15 01:34:06;;;;;;;12.23;11.15;;;;;;;;;;2074602;28;20203;-56
2021/09/15 01:35:09;;;;;;;12.10;10.95;;;;;;;;;;2069868;28;20727;-56
2021/09/15 01:36:11;;;;;;;11.90;10.70;;;;;;;;;;2067589;28;20169;-53
2021/09/15 01:37:12;;;;;;;12.63;11.43;;;;;;;;;;2069757;28;20205;-55
2021/09/15 01:38:24;;;;;;;10.95;10.05;;;;;;;;;;2078349;28;20180;-56
2021/09/15 01:39:27;;;;;;;12.07;11.02;;;;;;;;;;2060165;28;20217;-55
2021/09/15 01:40:28;;;;;;;11.32;10.43;;;;;;;;;;2072078;28;20200;-58
2021/09/15 01:41:28;;;;;;;12.25;10.82;;;;;;;;;;2072500;28;20231;-57
2021/09/15 01:42:29;;;;;;;11.77;10.70;;;;;;;;;;2064013;28;20545;-58
2021/09/15 01:43:30;;;;;;;11.70;10.60;;;;;;;;;;2065650;28;20177;-58
2021/09/15 01:44:34;;;;;;;11.50;10.55;;;;;;;;;;2080709;28;20682;-56
2021/09/15 01:45:36;;;;;;;11.00;10.15;;;;;;;;;;2073472;28;20187;-56
2021/09/15 01:46:42;;;;;;;11.20;10.30;;;;;;;;;;2079566;28;20252;-57
2021/09/15 01:47:42;;;;;;;11.00;10.05;;;;;;;;;;2065734;28;20309;-58
2021/09/15 01:48:42;;;;;;;10.52;9.63;;;;;;;;;;2079325;28;20169;-58
2021/09/15 01:49:43;;;;;;;11.25;10.27;;;;;;;;;;2074475;28;20279;-54
2021/09/15 01:50:44;;;;;;;12.15;10.93;;;;;;;;;;2071886;28;20283;-58
2021/09/15 01:51:44;;;;;;;11.55;10.55;;;;;;;;;;2071522;28;20612;-58
2021/09/15 01:52:45;;;;;;;10.90;9.98;;;;;;;;;;2063147;28;20533;-57
2021/09/15 01:53:50;;;;;;;10.57;9.73;;;;;;;;;;2059439;28;21423;-58
2021/09/15 01:54:50;;;;;;;12.48;9.52;;;;;;;;;;2061831;28;20264;-58
2021/09/15 01:55:51;;;;;;;10.23;9.43;;;;;;;;;;2069824;28;20228;-57
2021/09/15 01:57:06;;;;;;;10.43;9.45;;;;;;;;;;2072537;28;20192;-56
2021/09/15 01:58:23;;;;;;;10.20;9.38;;;;;;;;;;2081390;28;20251;-57
2021/09/15 01:59:43;;;;;;;10.23;9.43;;;;;;;;;;2077509;28;20520;-58
2021/09/15 02:01:14;;;;;;;10.60;9.60;;;;;;;;;;2089873;28;20257;-59
2021/09/15 02:02:42;;;;;;;10.20;9.50;;;;;;;;;;2075531;28;20188;-56
2021/09/15 02:03:56;;;;;;;10.68;9.70;;;;;;;;;;2071897;28;20168;-57
2021/09/15 02:05:17;;;;;;;11.13;10.10;;;;;;;;;;2068557;28;20162;-58
2021/09/15 02:06:38;;;;;;;10.57;9.57;;;;;;;;;;2067263;28;20188;-57
2021/09/15 02:07:50;;;;;;;10.63;9.73;;;;;;;;;;2078831;28;20333;-55
2021/09/15 02:09:07;;;;;;;10.95;9.77;;;;;;;;;;2069460;28;20216;-58
2021/09/15 02:10:14;;;;;;;11.90;10.70;;;;;;;;;;2076463;28;20685;-56
2021/09/15 02:11:14;;;;;;;10.70;9.27;;;;;;;;;;2070196;28;20169;-56
2021/09/15 02:12:15;;;;;;;10.05;9.15;;;;;;;;;;2064369;28;20518;-57
2021/09/15 02:13:17;;;;;;;10.38;9.57;;;;;;;;;;2065918;28;20197;-54
2021/09/15 02:14:17;;;;;;;10.45;9.65;;;;;;;;;;2067671;28;20180;-57
2021/09/15 02:15:22;;;;;;;10.40;9.35;;;;;;;;;;2071781;28;20161;-56
2021/09/15 02:16:25;;;;;;;10.60;9.60;;;;;;;;;;2068837;28;20176;-54
2021/09/15 02:17:27;;;;;;;10.73;9.75;;;;;;;;;;2079656;28;20703;-58
2021/09/15 02:18:28;;;;;;;10.52;9.70;;;;;;;;;;2061188;28;21833;-55
2021/09/15 02:19:41;;;;;;;10.77;9.80;;;;;;;;;;2059821;28;20178;-58
2021/09/15 02:21:02;;;;;;;11.00;10.00;;;;;;;;;;2048138;28;20567;-55
2021/09/15 02:22:15;;;;;;;11.27;10.25;;;;;;;;;;2068165;28;20284;-57
2021/09/15 02:23:36;;;;;;;10.70;9.80;;;;;;;;;;2071843;28;20661;-55
2021/09/15 02:24:50;;;;;;;11.55;10.45;;;;;;;;;;2070099;28;20206;-56
2021/09/15 02:26:09;;;;;;;11.10;10.10;;;;;;;;;;2069314;28;20169;-56
2021/09/15 02:27:16;;;;;;;11.07;10.18;;;;;;;;;;2079620;28;20919;-56
2021/09/15 02:28:17;;;;;;;12.05;10.68;;;;;;;;;;2073587;28;20185;-57
2021/09/15 02:29:36;;;;;;;11.43;10.25;;;;;;;;;;2067321;28;20265;-57
2021/09/15 02:31:02;;;;;;;10.80;9.90;;;;;;;;;;2075664;28;20180;-57
2021/09/15 02:32:25;;;;;;;11.77;10.68;;;;;;;;;;2080421;28;20180;-51
2021/09/15 02:33:42;;;;;;;11.52;10.43;;;;;;;;;;2073560;28;20177;-57
2021/09/15 02:34:51;;;;;;;11.32;9.48;;;;;;;;;;2071839;28;20180;-57
2021/09/15 02:36:06;;;;;;;11.77;10.75;;;;;;;;;;2074698;28;20169;-57
2021/09/15 02:37:20;;;;;;;11.15;10.15;;;;;;;;;;2062999;28;20223;-55
2021/09/15 02:38:50;;;;;;;11.10;10.20;;;;;;;;;;2074998;28;20624;-56
2021/09/15 02:40:09;;;;;;;12.02;10.77;;;;;;;;;;2079739;28;20577;-56
2021/09/15 02:41:23;;;;;;;13.43;11.18;;;;;;;;;;2065418;28;20261;-58
2021/09/15 02:42:34;;;;;;;11.25;10.38;;;;;;;;;;2056258;28;20190;-56
2021/09/15 02:43:42;;;;;;;12.02;10.98;;;;;;;;;;2066715;28;20186;-56
2021/09/15 02:45:12;;;;;;;12.32;11.13;;;;;;;;;;2066653;28;20178;-54
2021/09/15 02:46:22;;;;;;;11.70;10.70;;;;;;;;;;2072312;28;20192;-57
2021/09/15 02:47:44;;;;;;;12.70;11.65;;;;;;;;;;2071998;28;20701;-57
2021/09/15 02:49:09;;;;;;;12.20;11.20;;;;;;;;;;2075871;28;20615;-54
2021/09/15 02:50:24;;;;;;;12.13;11.02;;;;;;;;;;2074102;28;20203;-57
2021/09/15 02:51:33;;;;;;;11.73;10.77;;;;;;;;;;2070562;28;20622;-57
2021/09/15 02:52:43;;;;;;;11.90;10.88;;;;;;;;;;2074981;28;20223;-56
2021/09/15 02:54:01;;;;;;;12.25;11.25;;;;;;;;;;2074158;28;20173;-57
2021/09/15 02:55:12;;;;;;;12.68;11.57;;;;;;;;;;2071507;28;20177;-58
2021/09/15 02:56:14;;;;;;;11.70;10.77;;;;;;;;;;2079280;28;20323;-58
2021/09/15 02:57:29;;;;;;;12.23;11.20;;;;;;;;;;2071041;28;20294;-56
2021/09/15 02:58:40;;;;;;;12.98;11.80;;;;;;;;;;2065856;28;20169;-58
2021/09/15 02:59:52;;;;;;;12.45;11.35;;;;;;;;;;2068694;28;20173;-54
2021/09/15 03:01:18;;;;;;;15.05;11.23;;;;;;;;;;2066777;28;20705;-59
2021/09/15 03:02:28;;;;;;;12.13;10.75;;;;;;;;;;2058345;28;20221;-56
2021/09/15 03:04:03;;;;;;;11.73;10.52;;;;;;;;;;2056738;28;20817;-57
2021/09/15 03:05:13;;;;;;;12.68;11.50;;;;;;;;;;2064071;28;20532;-56
2021/09/15 03:06:31;;;;;;;12.73;11.52;;;;;;;;;;2063272;28;20663;-56
2021/09/15 03:07:38;;;;;;;11.25;10.25;;;;;;;;;;2072770;28;20201;-55
2021/09/15 03:08:38;;;;;;;12.05;10.90;;;;;;;;;;2063568;28;20276;-55
2021/09/15 03:09:39;;;;;;;12.60;11.40;;;;;;;;;;2065436;28;20300;-56
2021/09/15 03:10:42;;;;;;;12.43;11.32;;;;;;;;;;2073921;28;20245;-58
2021/09/15 03:11:44;;;;;;;11.68;10.75;;;;;;;;;;2065990;28;20169;-57
2021/09/15 03:12:44;;;;;;;12.02;10.80;;;;;;;;;;2076189;28;20216;-58
2021/09/15 03:13:46;;;;;;;11.60;10.60;;;;;;;;;;2080669;28;20253;-58
2021/09/15 03:14:47;;;;;;;11.60;10.60;;;;;;;;;;2072776;28;20173;-56
2021/09/15 03:15:48;;;;;;;12.02;11.02;;;;;;;;;;2069666;28;20197;-58
2021/09/15 03:16:48;;;;;;;12.25;11.15;;;;;;;;;;2071198;28;20823;-57
2021/09/15 03:17:48;;;;;;;13.13;11.52;;;;;;;;;;2077181;28;20184;-54
2021/09/15 03:18:49;;;;;;;12.52;11.50;;;;;;;;;;2076232;28;20176;-55
2021/09/15 03:19:49;;;;;;;10.85;9.95;;;;;;;;;;2064005;28;20644;-57
2021/09/15 03:20:49;;;;;;;12.48;11.23;;;;;;;;;;2066299;28;20181;-57
2021/09/15 03:21:49;;;;;;;17.48;14.15;;;;;;;;;;2082270;28;20176;-57
2021/09/15 03:22:50;;;;;;;16.75;15.07;;;;;;;;;;2077761;28;20222;-58
2021/09/15 03:23:50;;;;;;;13.73;12.43;;;;;;;;;;2075325;28;20192;-56
2021/09/15 03:24:50;;;;;;;13.75;12.55;;;;;;;;;;2069569;28;20188;-57
2021/09/15 03:25:50;;;;;;;13.57;12.30;;;;;;;;;;2075072;28;20240;-57
2021/09/15 03:26:51;;;;;;;12.77;11.68;;;;;;;;;;2077874;28;20180;-58
2021/09/15 03:27:51;;;;;;;12.73;11.65;;;;;;;;;;2074782;28;20187;-57
2021/09/15 03:28:52;;;;;;;12.50;11.45;;;;;;;;;;2076631;28;20173;-54
2021/09/15 03:29:52;;;;;;;12.40;11.20;;;;;;;;;;2066482;28;20275;-57
2021/09/15 03:30:52;;;;;;;13.27;12.00;;;;;;;;;;2067421;28;20250;-53
2021/09/15 03:31:52;;;;;;;14.15;12.85;;;;;;;;;;2068492;28;20174;-56
2021/09/15 03:32:53;;;;;;;15.07;13.77;;;;;;;;;;2057270;28;20221;-54
2021/09/15 03:33:53;;;;;;;13.57;12.30;;;;;;;;;;2063163;28;20258;-56
2021/09/15 03:34:54;;;;;;;14.40;13.10;;;;;;;;;;2087503;28;20179;-57
2021/09/15 03:35:54;;;;;;;16.25;14.57;;;;;;;;;;2076947;28;20712;-57
2021/09/15 03:36:54;;;;;;;16.75;15.20;;;;;;;;;;2066963;28;20673;-55
2021/09/15 03:37:55;;;;;;;14.57;13.20;;;;;;;;;;2065109;28;20177;-57
2021/09/15 03:38:56;;;;;;;14.52;13.32;;;;;;;;;;2063332;28;20209;-57
2021/09/15 03:39:59;;;;;;;14.40;12.95;;;;;;;;;;2062843;28;20371;-59
2021/09/15 03:41:00;;;;;;;14.32;12.82;;;;;;;;;;2071827;28;20173;-58
2021/09/15 03:42:01;;;;;;;12.93;11.82;;;;;;;;;;2071129;28;20176;-52
2021/09/15 03:43:02;;;;;;;13.70;12.50;;;;;;;;;;2073173;28;20255;-53
2021/09/15 03:44:03;;;;;;;12.20;11.20;;;;;;;;;;2063323;28;20181;-54
2021/09/15 03:45:04;;;;;;;13.23;12.10;;;;;;;;;;2071220;28;20211;-55
2021/09/15 03:46:05;;;;;;;12.35;11.35;;;;;;;;;;2065176;28;20674;-57
2021/09/15 03:47:05;;;;;;;12.43;11.43;;;;;;;;;;2056044;28;20222;-55
2021/09/15 03:48:06;;;;;;;13.27;11.98;;;;;;;;;;2073528;28;20191;-55
2021/09/15 03:49:06;;;;;;;12.52;11.43;;;;;;;;;;2074655;28;20797;-53
2021/09/15 03:50:08;;;;;;;12.48;11.45;;;;;;;;;;2072241;28;20301;-56
2021/09/15 03:51:08;;;;;;;12.73;11.60;;;;;;;;;;2083015;28;20210;-56
2021/09/15 03:52:08;;;;;;;13.13;11.90;;;;;;;;;;2074243;28;20225;-54
2021/09/15 03:53:09;;;;;;;12.00;10.90;;;;;;;;;;2065046;28;20577;-53
2021/09/15 03:54:09;;;;;;;12.55;11.40;;;;;;;;;;2074508;28;20664;-55
2021/09/15 03:55:09;;;;;;;12.93;11.77;;;;;;;;;;2074304;28;20666;-57
2021/09/15 03:56:10;;;;;;;12.30;11.30;;;;;;;;;;2078004;28;20172;-55
2021/09/15 03:57:10;;;;;;;13.32;12.13;;;;;;;;;;2072695;28;20197;-56
2021/09/15 03:58:11;;;;;;;12.38;11.38;;;;;;;;;;2075148;28;20548;-56
2021/09/15 03:59:12;;;;;;;12.73;11.55;;;;;;;;;;2062195;28;20178;-57
2021/09/15 04:00:13;;;;;;;13.30;12.18;;;;;;;;;;2060208;28;20230;-56
2021/09/15 04:01:14;;;;;;;12.82;11.63;;;;;;;;;;2076278;28;20598;-54
2021/09/15 04:02:14;;;;;;;12.65;11.65;;;;;;;;;;2082557;28;20259;-55
2021/09/15 04:03:15;;;;;;;12.68;11.48;;;;;;;;;;2074123;28;20842;-52
2021/09/15 04:04:15;;;;;;;11.70;10.80;;;;;;;;;;2077184;28;20187;-53
2021/09/15 04:05:15;;;;;;;13.88;12.68;;;;;;;;;;2072898;28;20173;-57
2021/09/15 04:06:16;;;;;;;12.80;11.63;;;;;;;;;;2067713;28;20172;-57
2021/09/15 04:07:16;;;;;;;12.48;11.38;;;;;;;;;;2064467;28;20284;-54
2021/09/15 04:08:17;;;;;;;13.85;12.50;;;;;;;;;;2067664;28;20231;-52
2021/09/15 04:09:17;;;;;;;13.05;11.65;;;;;;;;;;2061689;28;20184;-56
2021/09/15 04:10:18;;;;;;;13.23;11.35;;;;;;;;;;2075203;28;20180;-57
2021/09/15 04:11:19;;;;;;;13.35;12.15;;;;;;;;;;2078206;28;20161;-54
2021/09/15 04:12:21;;;;;;;13.40;11.95;;;;;;;;;;2061137;28;20182;-56
2021/09/15 04:13:22;;;;;;;13.70;12.50;;;;;;;;;;2069619;28;20272;-56
2021/09/15 04:14:25;;;;;;;13.27;12.05;;;;;;;;;;2070980;28;20791;-52
2021/09/15 04:15:28;;;;;;;14.93;13.48;;;;;;;;;;2071664;28;20177;-56
2021/09/15 04:16:28;;;;;;;14.50;13.30;;;;;;;;;;2067909;28;20602;-56
2021/09/15 04:17:28;;;;;;;13.98;12.73;;;;;;;;;;2063872;28;20202;-56
2021/09/15 04:18:29;;;;;;;14.07;12.73;;;;;;;;;;2065803;28;20229;-59
2021/09/15 04:19:31;;;;;;;14.55;13.30;;;;;;;;;;2068108;28;20200;-55
2021/09/15 04:20:31;;;;;;;13.90;12.60;;;;;;;;;;2067125;28;20181;-56
2021/09/15 04:21:32;;;;;;;13.85;12.65;;;;;;;;;;2074954;28;20525;-55
2021/09/15 04:22:36;;;;;;;13.23;11.98;;;;;;;;;;2069890;28;20316;-52
2021/09/15 04:32:17;;;;;;;13.43;12.32;;;;;;;;;;2066622;28;20174;-56
2021/09/15 04:33:18;;;;;;;13.35;12.07;;;;;;;;;;2069208;28;20176;-53
2021/09/15 04:34:19;;;;;;;14.20;12.85;;;;;;;;;;2069441;28;20162;-53
2021/09/15 04:35:27;;;;;;;13.07;11.95;;;;;;;;;;2078349;28;20266;-55
2021/09/15 04:36:28;;;;;;;14.30;12.90;;;;;;;;;;2076992;28;20609;-53
2021/09/15 04:37:30;;;;;;;14.10;12.82;;;;;;;;;;2072201;28;20197;-51
2021/09/15 04:38:30;;;;;;;14.57;13.30;;;;;;;;;;2063480;28;20665;-55
2021/09/15 04:39:32;;;;;;;14.68;13.38;;;;;;;;;;2071028;28;20181;-56
2021/09/15 04:40:33;;;;;;;14.77;13.40;;;;;;;;;;2063722;28;20225;-53
2021/09/15 04:41:34;;;;;;;14.93;13.57;;;;;;;;;;2064186;28;20193;-54
2021/09/15 04:42:34;;;;;;;14.27;13.18;;;;;;;;;;2059602;28;20587;-54
2021/09/15 04:43:35;;;;;;;14.98;13.48;;;;;;;;;;2055677;28;20191;-54
2021/09/15 04:44:35;;;;;;;15.32;13.70;;;;;;;;;;2060078;28;20236;-55
2021/09/15 04:45:36;;;;;;;14.50;13.13;;;;;;;;;;2071909;28;20185;-56
2021/09/15 04:46:37;;;;;;;14.73;13.52;;;;;;;;;;2066940;28;20264;-58
2021/09/15 04:47:38;;;;;;;15.73;14.32;;;;;;;;;;2062097;28;20194;-57
2021/09/15 04:48:39;;;;;;;14.90;13.52;;;;;;;;;;2066169;28;20200;-57
2021/09/15 04:49:39;;;;;;;14.45;13.23;;;;;;;;;;2080537;28;20210;-52
2021/09/15 04:50:40;;;;;;;14.82;13.52;;;;;;;;;;2075425;28;20165;-54
2021/09/15 04:51:40;;;;;;;16.30;14.65;;;;;;;;;;2074181;28;20181;-57
2021/09/15 04:52:41;;;;;;;15.30;13.25;;;;;;;;;;2058615;28;20185;-55
2021/09/15 04:53:41;;;;;;;15.43;14.13;;;;;;;;;;2065692;28;20218;-56
2021/09/15 04:54:41;;;;;;;16.02;14.45;;;;;;;;;;2073401;28;20169;-56
2021/09/15 04:55:41;;;;;;;15.70;14.30;;;;;;;;;;2074199;28;20693;-52
2021/09/15 04:56:42;;;;;;;15.55;14.25;;;;;;;;;;2074205;28;20201;-54
2021/09/15 04:57:43;;;;;;;19.33;17.40;;;;;;;;;;2067951;28;20200;-57
2021/09/15 04:58:43;;;;;;;14.90;13.68;;;;;;;;;;2058319;28;20180;-55
2021/09/15 04:59:43;;;;;;;16.13;14.48;;;;;;;;;;2070702;28;20638;-55
2021/09/15 05:00:44;;;;;;;15.02;13.63;;;;;;;;;;2082802;28;20184;-53
2021/09/15 05:01:46;;;;;;;15.40;14.00;;;;;;;;;;2069161;28;20166;-64
2021/09/15 05:02:46;;;;;;;15.10;13.57;;;;;;;;;;2064960;28;20272;-56
2021/09/15 05:04:01;;;;;;;15.93;14.43;;;;;;;;;;2071267;28;20203;-56
2021/09/15 05:05:01;;;;;;;15.07;13.63;;;;;;;;;;2076197;28;20173;-53
2021/09/15 05:06:11;;;;;;;14.40;13.10;;;;;;;;;;2076905;28;20578;-56
2021/09/15 05:07:13;;;;;;;15.40;13.82;;;;;;;;;;2067884;28;20276;-60
2021/09/15 05:08:13;;;;;;;16.05;14.65;;;;;;;;;;2066041;28;20272;-57
2021/09/15 05:09:14;;;;;;;17.83;16.08;;;;;;;;;;2066329;28;20177;-54
2021/09/15 05:10:24;;;;;;;17.40;15.85;;;;;;;;;;2069932;28;20703;-58
2021/09/15 05:11:25;;;;;;;18.75;16.88;;;;;;;;;;2071610;28;20182;-57
2021/09/15 05:12:25;;;;;;;16.95;15.27;;;;;;;;;;2068345;28;20257;-56
2021/09/15 05:13:25;;;;;;;15.25;13.85;;;;;;;;;;2055082;28;20579;-56
2021/09/15 05:14:26;;;;;;;14.57;13.18;;;;;;;;;;2057557;28;20170;-58
2021/09/15 05:15:26;;;;;;;15.45;14.05;;;;;;;;;;2057292;28;20578;-58
2021/09/15 05:16:31;;;;;;;16.13;14.43;;;;;;;;;;2055644;28;20175;-56
2021/09/15 05:17:31;;;;;;;16.02;14.63;;;;;;;;;;2065029;28;20186;-54
2021/09/15 05:18:31;;;;;;;18.23;16.42;;;;;;;;;;2065217;28;20185;-56
2021/09/15 05:19:32;;;;;;;15.13;13.80;;;;;;;;;;2065434;28;20165;-55
2021/09/15 05:20:32;;;;;;;17.95;16.23;;;;;;;;;;2065506;28;20268;-55
2021/09/15 05:21:32;;;;;;;16.77;15.23;;;;;;;;;;2065726;28;20654;-56
2021/09/15 05:22:33;;;;;;;18.63;17.00;;;;;;;;;;2065730;28;20174;-54
2021/09/15 05:23:34;;;;;;;17.83;16.33;;;;;;;;;;2073919;28;20217;-57
2021/09/15 05:24:39;;;;;;;16.73;15.23;;;;;;;;;;2066493;28;20172;-58
2021/09/15 05:25:39;;;;;;;18.63;16.83;;;;;;;;;;2065414;28;20177;-53
2021/09/15 05:26:42;;;;;;;16.30;14.63;;;;;;;;;;2065917;28;20177;-59
2021/09/15 05:27:42;;;;;;;17.10;15.43;;;;;;;;;;2065326;28;20758;-60
2021/09/15 05:28:43;;;;;;;15.85;14.45;;;;;;;;;;2072879;28;20169;-60
2021/09/15 05:29:45;;;;;;;17.17;15.52;;;;;;;;;;2082043;28;20251;-58
2021/09/15 05:30:47;;;;;;;17.17;15.77;;;;;;;;;;2073615;28;20315;-60
2021/09/15 05:31:47;;;;;;;16.58;15.07;;;;;;;;;;2073403;28;20177;-58
2021/09/15 05:32:47;;;;;;;16.55;14.95;;;;;;;;;;2073248;28;20169;-58
2021/09/15 05:33:48;;;;;;;17.23;15.43;;;;;;;;;;2064803;28;20252;-58
2021/09/15 05:34:50;;;;;;;18.45;16.77;;;;;;;;;;2065557;28;20182;-57
2021/09/15 05:35:50;;;;;;;19.10;17.30;;;;;;;;;;2065246;28;20165;-56
2021/09/15 05:36:51;;;;;;;17.80;15.82;;;;;;;;;;2065031;28;20565;-60
2021/09/15 05:37:51;;;;;;;17.27;15.77;;;;;;;;;;2092248;23;20228;-56
2021/09/15 05:38:51;;;;;;;17.95;16.35;;;;;;;;;;2075289;28;20200;-63
2021/09/15 05:39:59;;;;;;;17.67;16.10;;;;;;;;;;2072508;28;20193;-60
2021/09/15 05:41:00;;;;;;;17.30;15.70;;;;;;;;;;2078563;28;20173;-64
2021/09/15 05:42:00;;;;;;;16.80;15.10;;;;;;;;;;2084143;28;20267;-62
2021/09/15 05:43:01;;;;;;;17.05;15.48;;;;;;;;;;2088579;28;20308;-63
2021/09/15 05:44:01;;;;;;;16.90;15.32;;;;;;;;;;2095903;28;20203;-67
2021/09/15 05:45:02;;;;;;;18.95;17.25;;;;;;;;;;2090978;28;20615;-61
2021/09/15 05:46:03;;;;;;;18.30;16.63;;;;;;;;;;2081624;28;20203;-60
2021/09/15 05:47:03;;;;;;;20.70;18.63;;;;;;;;;;2092098;28;20178;-57
2021/09/15 05:48:06;;;;;;;19.98;18.15;;;;;;;;;;2091355;28;20682;-62
2021/09/15 05:49:07;;;;;;;21.83;19.63;;;;;;;;;;2084325;28;20234;-61
2021/09/15 05:50:10;;;;;;;20.20;18.35;;;;;;;;;;2089930;28;20266;-56
2021/09/15 05:51:16;;;;;;;22.30;18.60;;;;;;;;;;2080604;28;20156;-61
2021/09/15 05:52:21;;;;;;;18.33;16.55;;;;;;;;;;2089520;28;20537;-60
2021/09/15 05:53:21;;;;;;;18.08;16.33;;;;;;;;;;2084144;28;20176;-61
2021/09/15 05:54:22;;;;;;;18.85;17.10;;;;;;;;;;2081369;28;20260;-63
2021/09/15 05:55:23;;;;;;;18.33;16.63;;;;;;;;;;2081953;28;20181;-57
2021/09/15 05:56:23;;;;;;;17.85;16.15;;;;;;;;;;2082708;28;20169;-58
2021/09/15 05:57:23;;;;;;;18.45;16.85;;;;;;;;;;2080408;28;20176;-64
2021/09/15 05:58:24;;;;;;;18.38;16.65;;;;;;;;;;2082851;28;20168;-65
2021/09/15 05:59:24;;;;;;;18.95;17.05;;;;;;;;;;2093188;28;20172;-63
2021/09/15 06:00:24;;;;;;;17.27;15.60;;;;;;;;;;2079318;28;20181;-63
2021/09/15 06:01:25;;;;;;;18.08;16.35;;;;;;;;;;2077473;28;20165;-63
2021/09/15 06:02:25;;;;;;;19.27;17.35;;;;;;;;;;2082038;28;20193;-64
2021/09/15 06:03:26;;;;;;;16.98;15.45;;;;;;;;;;2078855;28;20549;-64
2021/09/15 06:04:45;;;;;;;17.05;15.35;;;;;;;;;;2077772;28;20168;-63
2021/09/15 06:05:56;;;;;;;17.05;15.43;;;;;;;;;;2082046;28;20190;-62
2021/09/15 06:06:58;;;;;;;18.42;16.63;;;;;;;;;;2086373;28;20542;-62
2021/09/15 06:07:59;;;;;;;19.05;17.15;;;;;;;;;;2086166;28;20195;-61
2021/09/15 06:08:59;;;;;;;18.55;16.65;;;;;;;;;;2085393;28;20175;-62
2021/09/15 06:10:00;;;;;;;18.63;16.83;;;;;;;;;;2086866;28;20206;-60
2021/09/15 06:11:00;;;;;;;17.00;15.50;;;;;;;;;;2089049;28;20797;-60
2021/09/15 06:12:00;;;;;;;18.88;17.00;;;;;;;;;;2086685;28;20220;-62
2021/09/15 06:13:03;;;;;;;17.20;15.60;;;;;;;;;;2079601;28;20660;-60
2021/09/15 06:14:03;;;;;;;19.65;17.73;;;;;;;;;;2089602;28;20176;-63
2021/09/15 06:15:04;;;;;;;17.13;15.55;;;;;;;;;;2092272;28;20547;-63
2021/09/15 06:16:06;;;;;;;18.15;16.45;;;;;;;;;;2083626;28;20199;-61
2021/09/15 06:17:07;;;;;;;17.90;16.13;;;;;;;;;;2082342;28;20183;-59
2021/09/15 06:18:08;;;;;;;17.38;15.68;;;;;;;;;;2079908;28;20184;-58
2021/09/15 06:19:25;;;;;;;19.05;17.33;;;;;;;;;;2083103;28;20168;-59
2021/09/15 06:20:28;;;;;;;19.13;17.35;;;;;;;;;;2087609;28;20183;-62
2021/09/15 06:21:40;;;;;;;20.30;18.25;;;;;;;;;;2087923;28;20853;-61
2021/09/15 06:22:59;;;;;;;19.73;17.83;;;;;;;;;;2091016;28;20179;-57
2021/09/15 06:24:15;;;;;;;18.65;16.58;;;;;;;;;;2087282;28;20171;-61